createdAt,value
2022-11-15T00:00:50.960Z,97211.81
2022-11-15T00:03:23.386Z,97199.22
2022-11-15T00:05:50.084Z,97338.72
2022-11-15T00:08:16.746Z,97133.47
2022-11-15T00:10:43.609Z,97208.78
2022-11-15T00:13:11.497Z,97317.84
2022-11-15T00:15:41.769Z,97212.09
2022-11-15T00:18:15.306Z,97182.75
2022-11-15T00:20:41.837Z,97266.91
2022-11-15T00:23:08.463Z,97262.59
2022-11-15T00:25:35.157Z,97339.59
2022-11-15T00:28:01.737Z,97273.84
2022-11-15T00:30:28.505Z,97213.94
2022-11-15T00:32:55.080Z,97210.41
2022-11-15T00:35:21.760Z,97051.97
2022-11-15T00:37:48.672Z,97263.34
2022-11-15T00:40:15.530Z,97316.97
2022-11-15T00:42:42.163Z,97118.03
2022-11-15T00:45:09.312Z,97236.66
2022-11-15T00:47:35.848Z,97336.22
2022-11-15T00:50:02.343Z,97265.22
2022-11-15T00:52:28.878Z,97264.44
2022-11-15T00:54:55.472Z,97206.44
2022-11-15T00:57:21.993Z,97210.81
2022-11-15T00:59:48.529Z,97350.34
2022-11-15T01:02:15.074Z,97179.78
2022-11-15T01:04:41.573Z,97096.75
2022-11-15T01:07:08.174Z,97265.56
2022-11-15T01:09:34.772Z,97224.81
2022-11-15T01:12:01.343Z,97170.13
2022-11-15T01:14:27.913Z,97292.69
2022-11-15T01:16:54.512Z,97279.63
2022-11-15T01:19:21.029Z,97201.56
2022-11-15T01:21:50.224Z,97148.47
2022-11-15T01:24:16.895Z,97201.59
2022-11-15T01:26:45.629Z,97293.44
2022-11-15T01:29:12.202Z,97336.69
2022-11-15T01:31:39.095Z,97291.75
2022-11-15T01:34:05.685Z,97190.63
2022-11-15T01:36:32.309Z,97157.78
2022-11-15T01:38:59.129Z,97240.56
2022-11-15T01:41:28.045Z,97237.06
2022-11-15T01:43:56.004Z,96970.81
2022-11-15T01:46:22.462Z,97356.94
2022-11-15T01:48:49.005Z,97209.56
2022-11-15T01:51:16.680Z,97203.84
2022-11-15T01:53:44.206Z,97283.47
2022-11-15T01:56:13.631Z,97196.16
2022-11-15T01:58:42.873Z,97182.34
2022-11-15T02:01:09.520Z,97141.81
2022-11-15T02:03:41.025Z,97190.25
2022-11-15T02:06:07.627Z,97126.22
2022-11-15T02:08:34.168Z,97101.19
2022-11-15T02:11:00.705Z,97140.94
2022-11-15T02:13:27.226Z,97166.19
2022-11-15T02:16:06.465Z,97316.81
2022-11-15T02:18:38.380Z,97151.44
2022-11-15T02:21:26.142Z,97313.38
2022-11-15T02:24:24.471Z,97305.72
2022-11-15T02:27:03.044Z,97306.59
2022-11-15T02:29:36.941Z,97303.13
2022-11-15T02:32:09.591Z,97233.09
2022-11-15T02:34:42.179Z,97298.91
2022-11-15T02:37:24.507Z,97099.09
2022-11-15T02:40:14.482Z,97226.34
2022-11-15T02:43:07.957Z,97074.06
2022-11-15T02:45:38.492Z,97126.00
2022-11-15T02:48:05.217Z,97215.09
2022-11-15T02:50:31.808Z,97281.75
2022-11-15T02:52:58.355Z,97154.53
2022-11-15T02:55:41.685Z,97205.47
2022-11-15T02:58:17.172Z,97208.25
2022-11-15T03:00:51.777Z,97233.09
2022-11-15T03:03:38.563Z,97157.84
2022-11-15T03:06:23.454Z,97282.66
2022-11-15T03:09:22.871Z,97178.81
2022-11-15T03:11:51.802Z,97210.78
2022-11-15T03:14:31.335Z,97289.53
2022-11-15T03:17:16.098Z,97152.97
2022-11-15T03:19:46.737Z,97210.00
2022-11-15T03:22:21.571Z,97131.16
2022-11-15T03:24:51.116Z,97107.13
2022-11-15T03:27:20.561Z,97076.84
2022-11-15T03:30:01.875Z,96968.81
2022-11-15T03:32:33.044Z,97153.72
2022-11-15T03:35:02.441Z,97063.03
2022-11-15T03:37:33.859Z,97204.75
2022-11-15T03:40:00.411Z,97203.06
2022-11-15T03:42:33.916Z,97276.66
2022-11-15T03:45:12.479Z,97277.56
2022-11-15T03:47:50.592Z,97038.50
2022-11-15T03:50:19.107Z,97048.09
2022-11-15T03:52:46.358Z,97221.56
2022-11-15T03:55:15.230Z,97132.31
2022-11-15T03:57:41.830Z,97179.19
2022-11-15T04:00:08.996Z,97183.53
2022-11-15T04:02:35.518Z,97254.28
2022-11-15T04:05:02.080Z,97104.03
2022-11-15T04:07:28.631Z,97253.75
2022-11-15T04:10:04.375Z,96944.34
2022-11-15T04:12:32.216Z,97016.94
2022-11-15T04:15:10.350Z,97180.13
2022-11-15T04:17:47.058Z,97097.53
2022-11-15T04:20:40.953Z,97158.91
2022-11-15T04:23:29.336Z,97072.63
2022-11-15T04:25:56.703Z,97084.75
2022-11-15T04:28:23.371Z,97050.38
2022-11-15T04:30:49.856Z,97139.28
2022-11-15T04:33:16.423Z,97147.72
2022-11-15T04:35:43.515Z,97144.06
2022-11-15T04:38:10.655Z,97151.16
2022-11-15T04:40:38.019Z,97046.25
2022-11-15T04:43:05.027Z,97166.50
2022-11-15T04:45:31.651Z,97169.81
2022-11-15T04:47:58.189Z,97157.91
2022-11-15T04:50:24.750Z,97073.25
2022-11-15T04:52:52.792Z,97073.72
2022-11-15T04:55:19.336Z,97111.69
2022-11-15T04:57:45.934Z,97156.22
2022-11-15T05:00:14.237Z,97167.44
2022-11-15T05:02:59.512Z,97002.44
2022-11-15T05:05:26.146Z,97020.69
2022-11-15T05:07:52.892Z,97051.84
2022-11-15T05:10:19.657Z,97217.09
2022-11-15T05:12:47.588Z,97129.72
2022-11-15T05:15:14.156Z,96767.84
2022-11-15T05:17:40.804Z,96967.19
2022-11-15T05:20:08.050Z,97025.19
2022-11-15T05:22:34.580Z,97081.31
2022-11-15T05:25:01.202Z,97117.66
2022-11-15T05:27:27.736Z,96996.00
2022-11-15T05:29:54.348Z,97069.47
2022-11-15T05:32:20.986Z,97098.72
2022-11-15T05:34:47.783Z,97053.09
2022-11-15T05:37:15.059Z,97061.84
2022-11-15T05:39:41.620Z,96983.91
2022-11-15T05:42:10.910Z,96950.13
2022-11-15T05:44:37.589Z,96967.56
2022-11-15T05:47:04.727Z,96951.91
2022-11-15T05:49:32.525Z,97130.06
2022-11-15T05:51:59.070Z,97152.66
2022-11-15T05:54:25.568Z,97061.84
2022-11-15T05:56:52.112Z,97087.03
2022-11-15T05:59:18.617Z,97186.50
2022-11-15T06:01:45.203Z,97026.34
2022-11-15T06:04:11.732Z,96899.72
2022-11-15T06:06:38.269Z,97066.38
2022-11-15T06:09:04.774Z,97158.00
2022-11-15T06:11:31.266Z,96959.66
2022-11-15T06:13:57.841Z,97009.28
2022-11-15T06:16:24.329Z,97030.84
2022-11-15T06:18:50.899Z,97106.97
2022-11-15T06:21:17.420Z,97062.13
2022-11-15T06:23:43.963Z,97108.66
2022-11-15T06:26:10.463Z,96993.88
2022-11-15T06:28:37.075Z,96934.09
2022-11-15T06:31:05.040Z,96928.03
2022-11-15T06:33:31.734Z,97070.50
2022-11-15T06:36:06.559Z,96819.88
2022-11-15T06:38:33.327Z,96984.25
2022-11-15T06:41:07.354Z,97111.59
2022-11-15T06:43:34.431Z,96998.22
2022-11-15T06:46:02.099Z,97003.34
2022-11-15T06:48:28.931Z,96819.50
2022-11-15T06:50:56.978Z,97192.22
2022-11-15T06:53:23.910Z,96996.28
2022-11-15T06:55:55.058Z,96838.66
2022-11-15T06:58:22.418Z,97120.09
2022-11-15T07:00:48.962Z,97068.97
2022-11-15T07:03:15.510Z,97138.97
2022-11-15T07:05:42.027Z,97070.53
2022-11-15T07:08:08.682Z,97129.50
2022-11-15T07:10:35.251Z,97159.97
2022-11-15T07:13:01.759Z,96982.63
2022-11-15T07:15:28.311Z,97086.38
2022-11-15T07:17:54.863Z,97019.09
2022-11-15T07:20:21.457Z,96960.19
2022-11-15T07:22:48.003Z,97118.59
2022-11-15T07:25:14.616Z,96976.94
2022-11-15T07:27:41.670Z,97177.44
2022-11-15T07:30:08.885Z,96975.97
2022-11-15T07:32:35.623Z,96992.34
2022-11-15T07:35:02.237Z,97055.34
2022-11-15T07:37:28.736Z,96998.34
2022-11-15T07:39:55.254Z,96996.53
2022-11-15T07:42:40.490Z,97086.22
2022-11-15T07:45:07.412Z,97051.88
2022-11-15T07:47:33.916Z,97052.88
2022-11-15T07:50:00.496Z,97124.50
2022-11-15T07:52:27.166Z,97075.97
2022-11-15T07:54:53.805Z,96915.44
2022-11-15T07:57:20.346Z,96703.28
2022-11-15T07:59:47.052Z,97025.25
2022-11-15T08:02:13.698Z,96977.31
2022-11-15T08:04:40.377Z,96976.16
2022-11-15T08:07:06.977Z,97183.72
2022-11-15T08:09:33.534Z,96950.31
2022-11-15T08:12:00.114Z,97181.19
2022-11-15T08:14:26.788Z,97106.00
2022-11-15T08:16:53.525Z,96966.00
2022-11-15T08:19:20.242Z,96960.09
2022-11-15T08:21:46.832Z,97093.25
2022-11-15T08:24:14.539Z,96812.56
2022-11-15T08:26:41.104Z,97046.69
2022-11-15T08:29:09.635Z,97015.59
2022-11-15T08:31:37.446Z,97129.63
2022-11-15T08:34:04.796Z,96886.56
2022-11-15T08:36:37.015Z,97014.75
2022-11-15T08:39:11.730Z,96985.28
2022-11-15T08:41:38.450Z,96940.38
2022-11-15T08:44:05.270Z,97004.53
2022-11-15T08:46:31.808Z,96935.47
2022-11-15T08:48:58.357Z,96963.25
2022-11-15T08:51:24.950Z,97000.38
2022-11-15T08:53:51.484Z,96988.34
2022-11-15T08:56:18.031Z,96996.00
2022-11-15T08:58:44.712Z,96970.03
2022-11-15T09:01:21.161Z,97081.44
2022-11-15T09:03:47.827Z,97015.06
2022-11-15T09:06:14.584Z,96912.06
2022-11-15T09:08:47.576Z,96944.16
2022-11-15T09:11:15.653Z,96997.03
2022-11-15T09:13:42.537Z,96974.06
2022-11-15T09:16:09.164Z,97008.59
2022-11-15T09:18:35.890Z,97046.66
2022-11-15T09:21:03.873Z,97035.50
2022-11-15T09:23:30.439Z,96905.91
2022-11-15T09:26:04.281Z,96893.81
2022-11-15T09:31:06.567Z,97009.63
2022-11-15T09:33:33.442Z,96817.13
2022-11-15T09:36:08.309Z,96906.16
2022-11-15T09:38:35.283Z,96883.59
2022-11-15T09:41:14.256Z,97083.31
2022-11-15T09:43:46.918Z,97084.16
2022-11-15T09:46:36.017Z,96890.50
2022-11-15T09:49:02.761Z,97075.66
2022-11-15T09:51:36.921Z,97083.31
2022-11-15T09:54:51.104Z,97068.84
2022-11-15T09:57:15.957Z,97063.75
2022-11-15T10:00:17.682Z,97064.59
2022-11-15T10:03:10.059Z,96860.69
2022-11-15T10:05:42.291Z,96806.47
2022-11-15T10:08:27.686Z,97062.88
2022-11-15T10:13:55.140Z,96978.28
2022-11-15T10:16:42.907Z,97041.59
2022-11-15T10:19:12.372Z,97037.28
2022-11-15T10:21:46.549Z,97025.34
2022-11-15T10:24:13.776Z,96855.19
2022-11-15T10:26:49.043Z,97009.97
2022-11-15T10:29:26.300Z,96930.59
2022-11-15T10:31:53.572Z,96797.03
2022-11-15T10:34:24.217Z,96831.63
2022-11-15T10:36:58.398Z,96912.69
2022-11-15T10:39:25.289Z,96802.38
2022-11-15T10:41:52.012Z,96768.72
2022-11-15T10:44:39.800Z,96718.66
2022-11-15T10:47:21.476Z,96771.31
2022-11-15T10:49:58.088Z,96702.50
2022-11-15T10:52:25.546Z,96742.19
2022-11-15T10:54:56.529Z,96958.13
2022-11-15T10:57:26.128Z,96760.28
2022-11-15T10:59:57.921Z,96756.25
2022-11-15T11:02:33.694Z,96941.09
2022-11-15T11:05:00.557Z,96948.56
2022-11-15T11:07:29.696Z,96627.25
2022-11-15T11:10:13.310Z,96791.91
2022-11-15T11:12:49.520Z,96787.81
2022-11-15T11:15:16.956Z,96820.31
2022-11-15T11:17:49.556Z,96926.56
2022-11-15T11:20:28.571Z,96786.94
2022-11-15T11:23:04.417Z,96922.28
2022-11-15T11:25:36.988Z,96749.91
2022-11-15T11:28:30.602Z,96761.88
2022-11-15T11:31:01.136Z,96939.34
2022-11-15T11:33:50.203Z,96923.16
2022-11-15T11:36:23.062Z,96910.38
2022-11-15T11:39:09.055Z,96823.19
2022-11-15T11:42:00.154Z,96912.94
2022-11-15T11:44:34.354Z,96743.16
2022-11-15T11:47:02.761Z,96688.94
2022-11-15T11:49:48.337Z,96902.72
2022-11-15T11:52:18.388Z,96733.72
2022-11-15T11:55:13.055Z,96764.81
2022-11-15T11:57:43.766Z,96768.28
2022-11-15T12:00:19.852Z,96878.00
2022-11-15T12:02:56.059Z,96668.59
2022-11-15T12:05:37.771Z,96595.44
2022-11-15T12:08:15.917Z,96771.13
2022-11-15T12:10:42.422Z,96865.19
2022-11-15T12:13:14.671Z,96874.50
2022-11-15T12:16:09.060Z,96863.47
2022-11-15T12:18:36.871Z,96776.59
2022-11-15T12:21:28.258Z,96631.03
2022-11-15T12:24:00.127Z,96706.81
2022-11-15T12:26:34.111Z,96637.06
2022-11-15T12:29:25.719Z,96695.69
2022-11-15T12:31:53.566Z,96706.94
2022-11-15T12:34:19.972Z,96837.91
2022-11-15T12:36:46.677Z,96616.59
2022-11-15T12:39:13.810Z,96606.28
2022-11-15T12:41:41.703Z,96607.22
2022-11-15T12:44:12.790Z,96773.31
2022-11-15T12:46:42.306Z,96823.47
2022-11-15T12:49:23.824Z,96824.34
2022-11-15T12:51:50.327Z,96819.19
2022-11-15T12:54:23.044Z,96826.88
2022-11-15T12:57:04.885Z,96818.34
2022-11-15T12:59:56.123Z,96804.56
2022-11-15T13:02:42.688Z,96605.44
2022-11-15T13:05:24.086Z,96814.06
2022-11-15T13:07:50.705Z,96816.63
2022-11-15T13:10:17.143Z,96808.97
2022-11-15T13:12:43.564Z,96805.53
2022-11-15T13:15:13.141Z,96802.94
2022-11-15T13:17:55.375Z,96802.09
2022-11-15T13:20:23.007Z,96624.47
2022-11-15T13:23:03.261Z,96804.63
2022-11-15T13:25:42.257Z,96810.63
2022-11-15T13:28:14.987Z,96803.81
2022-11-15T13:30:47.568Z,96801.28
2022-11-15T13:33:21.788Z,96659.06
2022-11-15T13:35:59.119Z,96529.06
2022-11-15T13:38:29.741Z,96819.16
2022-11-15T13:40:57.104Z,96740.78
2022-11-15T13:43:28.547Z,96816.59
2022-11-15T13:46:20.170Z,96813.19
2022-11-15T13:48:47.951Z,96764.03
2022-11-15T13:51:34.233Z,96486.69
2022-11-15T13:54:03.008Z,96809.78
2022-11-15T13:56:29.881Z,96658.25
2022-11-15T13:58:56.485Z,96600.41
2022-11-15T14:01:23.104Z,96710.63
2022-11-15T14:03:58.442Z,96806.38
2022-11-15T14:06:26.794Z,96675.41
2022-11-15T14:09:11.617Z,96779.97
2022-11-15T14:11:40.760Z,96686.13
2022-11-15T14:14:14.013Z,96614.81
2022-11-15T14:16:47.718Z,96626.78
2022-11-15T14:19:35.152Z,96594.31
2022-11-15T14:22:18.526Z,96751.91
2022-11-15T14:24:47.173Z,96680.38
2022-11-15T14:27:27.318Z,96667.41
2022-11-15T14:48:38.144Z,96565.81
2022-11-15T14:51:04.740Z,96608.13
2022-11-15T14:53:31.227Z,96633.94
2022-11-15T14:55:57.828Z,96518.69
2022-11-15T14:58:24.351Z,96621.88
2022-11-15T15:00:51.387Z,96610.81
2022-11-15T15:03:17.952Z,96602.19
2022-11-15T15:05:44.784Z,96615.94
2022-11-15T15:08:11.421Z,96598.72
2022-11-15T15:10:45.521Z,96477.53
2022-11-15T15:13:22.608Z,96674.59
2022-11-15T15:15:49.905Z,96633.13
2022-11-15T15:18:16.656Z,96582.41
2022-11-15T15:20:44.110Z,96539.56
2022-11-15T15:23:18.295Z,96534.28
2022-11-15T15:25:46.444Z,96536.03
2022-11-15T15:28:13.617Z,96645.34
2022-11-15T15:30:40.191Z,96523.91
2022-11-15T15:33:07.235Z,96576.63
2022-11-15T15:35:34.596Z,96567.91
2022-11-15T15:38:01.212Z,96572.28
2022-11-15T15:40:29.652Z,96556.66
2022-11-15T15:42:56.233Z,96529.25
2022-11-15T15:45:23.182Z,96538.75
2022-11-15T15:47:50.570Z,96514.63
2022-11-15T15:50:31.282Z,96543.06
2022-11-15T15:52:59.681Z,96590.38
2022-11-15T15:55:26.302Z,96548.31
2022-11-15T15:57:53.244Z,96579.25
2022-11-15T16:00:20.172Z,96509.50
2022-11-15T16:02:46.992Z,96468.25
2022-11-15T16:05:14.006Z,96522.44
2022-11-15T16:07:41.090Z,96654.69
2022-11-15T16:10:29.993Z,96711.03
2022-11-15T16:12:57.583Z,96507.13
2022-11-15T16:15:25.975Z,96252.56
2022-11-15T16:17:56.901Z,96290.22
2022-11-15T16:20:46.104Z,96437.34
2022-11-15T16:25:56.820Z,96594.94
2022-11-15T16:28:32.713Z,96380.72
2022-11-15T16:34:12.260Z,96700.75
2022-11-15T16:36:39.453Z,96705.88
2022-11-15T16:39:06.116Z,96524.09
2022-11-15T16:41:32.745Z,96446.66
2022-11-15T16:44:00.609Z,96306.84
2022-11-15T16:46:39.378Z,96634.63
2022-11-15T16:49:06.104Z,96419.78
2022-11-15T16:51:33.104Z,96423.91
2022-11-15T17:02:04.044Z,96397.50
2022-11-15T17:04:33.852Z,96411.25
2022-11-15T17:07:00.580Z,96450.84
2022-11-15T17:09:27.420Z,96492.09
2022-11-15T17:11:54.370Z,96422.31
2022-11-15T17:14:22.880Z,96188.88
2022-11-15T17:16:56.233Z,96655.56
2022-11-15T17:19:24.812Z,96559.06
2022-11-15T17:21:51.575Z,96518.88
2022-11-15T17:24:26.886Z,96346.03
2022-11-15T17:27:11.051Z,96372.84
2022-11-15T17:29:39.454Z,96643.59
2022-11-15T17:32:06.073Z,96390.78
2022-11-15T17:34:32.694Z,96483.91
2022-11-15T17:36:59.977Z,96165.88
2022-11-15T17:39:27.868Z,96316.50
2022-11-15T17:41:54.506Z,96265.63
2022-11-15T17:44:21.060Z,96368.00
2022-11-15T17:46:47.642Z,96335.13
2022-11-15T17:49:14.436Z,96277.75
2022-11-15T17:51:45.076Z,96133.53
2022-11-15T17:54:15.543Z,96278.78
2022-11-15T17:56:42.755Z,96620.81
2022-11-15T17:59:13.933Z,96298.59
2022-11-15T18:01:44.297Z,96339.66
2022-11-15T18:04:11.113Z,96385.00
2022-11-15T18:06:38.016Z,96291.59
2022-11-15T18:09:04.880Z,96297.53
2022-11-15T18:11:33.523Z,96423.00
2022-11-15T18:14:01.764Z,96535.66
2022-11-15T18:16:33.679Z,96392.19
2022-11-15T18:19:00.595Z,96283.19
2022-11-15T18:21:31.341Z,96453.19
2022-11-15T18:23:59.529Z,96389.63
2022-11-15T18:26:27.607Z,96493.63
2022-11-15T18:28:55.786Z,96470.38
2022-11-15T18:31:23.986Z,96528.66
2022-11-15T18:33:50.827Z,96501.38
2022-11-15T18:36:20.408Z,96324.22
2022-11-15T18:38:47.056Z,96460.09
2022-11-15T18:41:17.745Z,96453.22
2022-11-15T18:43:44.375Z,96515.13
2022-11-15T18:46:12.803Z,96461.00
2022-11-15T18:48:40.147Z,96578.59
2022-11-15T18:51:07.948Z,96449.09
2022-11-15T18:53:35.157Z,96371.78
2022-11-15T18:56:05.906Z,96412.03
2022-11-15T18:58:33.095Z,96429.41
2022-11-15T19:01:29.633Z,96432.03
2022-11-15T19:03:57.323Z,96429.38
2022-11-15T19:06:29.155Z,96321.09
2022-11-15T19:08:57.388Z,96452.63
2022-11-15T19:11:27.218Z,96562.69
2022-11-15T19:14:03.238Z,96266.16
2022-11-15T19:16:30.457Z,96372.00
2022-11-15T19:18:59.668Z,96293.03
2022-11-15T19:21:26.635Z,96412.34
2022-11-15T19:23:54.175Z,96515.59
2022-11-15T19:26:22.048Z,96414.22
2022-11-15T19:28:53.113Z,96464.88
2022-11-15T19:31:19.818Z,96470.16
2022-11-15T19:33:46.697Z,96364.50
2022-11-15T19:36:21.032Z,96207.47
2022-11-15T19:38:47.865Z,96297.59
2022-11-15T19:41:16.065Z,96284.50
2022-11-15T19:43:42.738Z,96386.75
2022-11-15T19:46:11.243Z,96498.38
2022-11-15T19:51:21.476Z,96445.88
2022-11-15T19:53:48.901Z,96349.91
2022-11-15T19:56:18.182Z,96409.16
2022-11-15T19:58:45.128Z,96502.09
2022-11-15T20:01:17.479Z,96527.94
2022-11-15T20:03:44.189Z,96393.81
2022-11-15T20:06:12.873Z,96223.75
2022-11-15T20:08:39.444Z,96196.38
2022-11-15T20:11:06.092Z,96391.13
2022-11-15T20:13:32.712Z,96308.47
2022-11-15T20:15:59.652Z,96148.28
2022-11-15T20:18:27.036Z,96241.91
2022-11-15T20:20:56.558Z,96171.38
2022-11-15T20:23:23.219Z,96083.13
2022-11-15T20:25:49.779Z,96187.06
2022-11-15T20:28:20.749Z,96218.72
2022-11-15T20:30:47.571Z,96149.13
2022-11-15T20:33:14.453Z,96274.38
2022-11-15T20:35:41.276Z,96269.91
2022-11-15T20:38:08.189Z,96267.69
2022-11-15T20:40:34.962Z,96380.22
2022-11-15T20:43:01.770Z,96423.09
2022-11-15T20:45:28.495Z,96124.44
2022-11-15T20:47:56.398Z,96280.50
2022-11-15T20:50:41.451Z,96394.75
2022-11-15T20:53:08.797Z,96079.75
2022-11-15T20:55:42.547Z,96272.06
2022-11-15T20:58:09.618Z,96389.59
2022-11-15T21:00:37.023Z,96157.00
2022-11-15T21:03:07.605Z,96288.19
2022-11-15T21:05:35.412Z,96501.41
2022-11-15T21:08:02.040Z,96149.50
2022-11-15T21:10:47.222Z,96144.56
2022-11-15T21:13:13.846Z,96180.28
2022-11-15T21:15:40.477Z,96252.50
2022-11-15T21:18:07.108Z,96184.72
2022-11-15T21:20:33.781Z,96161.03
2022-11-15T21:23:03.502Z,96207.28
2022-11-15T21:25:30.118Z,96086.41
2022-11-15T22:30:36.642Z,96375.34
2022-11-15T22:38:30.252Z,96124.09
2022-11-15T23:24:45.283Z,95920.63
2022-11-15T23:27:15.914Z,96096.09
2022-11-15T23:45:56.472Z,95958.25
2022-11-15T23:48:30.014Z,96347.22
2022-11-15T23:53:41.874Z,95997.75
2022-11-15T23:56:28.936Z,96320.03
2022-11-15T23:58:55.804Z,96005.56
